createdAt,value
2017-08-10T00:00:52.202Z,0
2017-08-10T00:01:52.672Z,0
2017-08-10T00:02:52.773Z,0
2017-08-10T00:03:52.322Z,0
2017-08-10T00:04:52.687Z,0
2017-08-10T00:05:52.693Z,0
2017-08-10T00:06:52.731Z,0
2017-08-10T00:07:52.433Z,0
2017-08-10T00:08:52.784Z,0
2017-08-10T00:09:52.197Z,0
2017-08-10T00:10:53.281Z,0
2017-08-10T00:11:53.014Z,0
2017-08-10T00:12:53.344Z,0
2017-08-10T00:13:53.052Z,0
2017-08-10T00:14:53.092Z,0
2017-08-10T00:15:53.148Z,0
2017-08-10T00:16:53.176Z,0
2017-08-10T00:17:53.916Z,0
2017-08-10T00:18:53.664Z,0
2017-08-10T00:19:53.990Z,0
2017-08-10T00:20:53.714Z,0
2017-08-10T00:21:54.085Z,0
2017-08-10T00:22:54.105Z,0
2017-08-10T00:23:53.858Z,0
2017-08-10T00:24:53.812Z,0
2017-08-10T00:25:53.867Z,0
2017-08-10T00:26:54.243Z,0
2017-08-10T00:27:54.267Z,0
2017-08-10T00:28:54.307Z,0
2017-08-10T00:29:54.039Z,0
2017-08-10T00:30:54.067Z,0
2017-08-10T00:31:54.423Z,0
2017-08-10T00:32:54.463Z,0
2017-08-10T00:33:54.487Z,0
2017-08-10T00:34:54.537Z,0
2017-08-10T00:35:54.562Z,0
2017-08-10T00:36:53.950Z,0
2017-08-10T00:37:54.428Z,0
2017-08-10T00:38:53.811Z,0
2017-08-10T00:39:54.889Z,0
2017-08-10T00:40:54.309Z,0
2017-08-10T00:41:54.954Z,0
2017-08-10T00:42:55.090Z,0
2017-08-10T00:43:55.030Z,0
2017-08-10T00:44:54.420Z,0
2017-08-10T00:45:55.183Z,0
2017-08-10T00:46:55.218Z,0
2017-08-10T00:47:55.358Z,0
2017-08-10T00:48:55.293Z,0
2017-08-10T00:49:55.636Z,0
2017-08-10T00:50:55.685Z,0
2017-08-10T00:51:55.481Z,0
2017-08-10T00:52:55.897Z,0
2017-08-10T00:53:55.148Z,0
2017-08-10T00:54:55.612Z,0
2017-08-10T00:55:56.039Z,0
2017-08-10T00:56:57.110Z,0
2017-08-10T00:57:57.280Z,0
2017-08-10T00:58:56.862Z,0
2017-08-10T00:59:56.919Z,0
2017-08-10T01:00:57.254Z,0
2017-08-10T01:01:57.084Z,0
2017-08-10T01:02:57.339Z,0
2017-08-10T01:03:57.057Z,0
2017-08-10T01:04:57.394Z,0
2017-08-10T01:05:57.125Z,0
2017-08-10T01:06:56.841Z,0
2017-08-10T01:07:57.931Z,0
2017-08-10T01:08:57.956Z,0
2017-08-10T01:09:57.668Z,0
2017-08-10T01:10:58.022Z,0
2017-08-10T01:11:57.751Z,0
2017-08-10T01:12:58.106Z,0
2017-08-10T01:13:58.134Z,0
2017-08-10T01:14:57.858Z,0
2017-08-10T01:15:58.292Z,0
2017-08-10T01:16:58.017Z,0
2017-08-10T01:17:58.757Z,0
2017-08-10T01:18:58.795Z,0
2017-08-10T01:19:58.518Z,0
2017-08-10T01:20:58.864Z,0
2017-08-10T01:21:58.909Z,0
2017-08-10T01:22:58.994Z,0
2017-08-10T01:23:58.767Z,0
2017-08-10T01:24:59.005Z,0
2017-08-10T01:25:59.041Z,0
2017-08-10T01:26:59.075Z,0
2017-08-10T01:27:59.116Z,0
2017-08-10T01:28:59.163Z,0
2017-08-10T01:29:58.882Z,0
2017-08-10T01:30:59.319Z,0
2017-08-10T01:31:59.656Z,0
2017-08-10T01:32:59.705Z,0
2017-08-10T01:33:59.421Z,0
2017-08-10T01:34:59.894Z,0
2017-08-10T01:35:59.791Z,0
2017-08-10T01:36:59.517Z,0
2017-08-10T01:37:59.540Z,0
2017-08-10T01:38:59.895Z,0
2017-08-10T01:39:59.944Z,0
2017-08-10T01:40:59.643Z,0
2017-08-10T01:41:59.699Z,0
2017-08-10T01:43:00.045Z,0
2017-08-10T01:43:59.143Z,0
2017-08-10T01:44:59.789Z,0
2017-08-10T01:46:00.157Z,0
2017-08-10T01:47:00.192Z,0
2017-08-10T01:47:59.914Z,0
2017-08-10T01:49:00.706Z,0
2017-08-10T01:50:00.741Z,0
2017-08-10T01:51:00.737Z,0
2017-08-10T01:52:00.763Z,0
2017-08-10T01:53:00.198Z,0
2017-08-10T01:54:00.963Z,0
2017-08-10T01:55:01.312Z,0
2017-08-10T01:56:01.099Z,0
2017-08-10T01:57:01.381Z,0
2017-08-10T01:58:01.081Z,0
2017-08-10T01:59:01.497Z,0
2017-08-10T02:00:01.874Z,0
2017-08-10T02:01:01.635Z,0
2017-08-10T02:02:01.640Z,0
2017-08-10T02:03:01.970Z,0
2017-08-10T02:04:02.008Z,0
2017-08-10T02:05:01.793Z,0
2017-08-10T02:06:02.075Z,0
2017-08-10T02:07:02.112Z,0
2017-08-10T02:08:02.150Z,0
2017-08-10T02:09:02.190Z,0
2017-08-10T02:10:01.886Z,0
2017-08-10T02:11:01.613Z,0
2017-08-10T02:12:02.061Z,0
2017-08-10T02:13:02.401Z,0
2017-08-10T02:14:01.812Z,0
2017-08-10T02:15:02.566Z,0
2017-08-10T02:16:02.611Z,0
2017-08-10T02:17:02.370Z,0
2017-08-10T02:18:02.494Z,0
2017-08-10T02:19:03.587Z,0
2017-08-10T02:20:03.607Z,0
2017-08-10T02:21:03.670Z,0
2017-08-10T02:22:03.359Z,0
2017-08-10T02:23:04.129Z,0
2017-08-10T02:24:04.208Z,0
2017-08-10T02:25:04.165Z,0
2017-08-10T02:26:04.258Z,0
2017-08-10T02:27:03.920Z,0
2017-08-10T02:28:04.054Z,0
2017-08-10T02:29:04.494Z,0
2017-08-10T02:30:04.573Z,0
2017-08-10T02:31:04.699Z,0
2017-08-10T02:32:04.722Z,0
2017-08-10T02:33:04.795Z,0
2017-08-10T02:34:05.106Z,0
2017-08-10T02:35:04.209Z,0
2017-08-10T02:36:04.859Z,0
2017-08-10T02:37:05.214Z,0
2017-08-10T02:38:04.606Z,0
2017-08-10T02:39:05.378Z,0
2017-08-10T02:40:05.423Z,0
2017-08-10T02:41:05.184Z,0
2017-08-10T02:42:06.268Z,0
2017-08-10T02:43:06.294Z,0
2017-08-10T02:44:06.335Z,0
2017-08-10T02:45:06.364Z,0
2017-08-10T02:46:06.434Z,0
2017-08-10T02:47:06.139Z,0
2017-08-10T02:48:06.476Z,0
2017-08-10T02:49:06.538Z,0
2017-08-10T02:50:06.542Z,0
2017-08-10T02:51:06.585Z,0
2017-08-10T02:52:05.981Z,0
2017-08-10T02:53:07.089Z,0
2017-08-10T02:54:06.864Z,0
2017-08-10T02:55:07.203Z,0
2017-08-10T02:56:06.881Z,0
2017-08-10T02:57:06.867Z,0
2017-08-10T02:58:07.292Z,0
2017-08-10T02:59:07.330Z,0
2017-08-10T03:00:07.134Z,0
2017-08-10T03:01:07.082Z,0
2017-08-10T03:02:07.117Z,0
2017-08-10T03:03:07.163Z,0
2017-08-10T03:04:06.884Z,0
2017-08-10T03:05:07.715Z,0
2017-08-10T03:06:07.683Z,0
2017-08-10T03:07:07.724Z,0
2017-08-10T03:08:07.766Z,0
2017-08-10T03:09:07.990Z,0
2017-08-10T03:10:07.823Z,0
2017-08-10T03:11:07.558Z,0
2017-08-10T03:12:07.583Z,0
2017-08-10T03:13:07.932Z,0
2017-08-10T03:14:07.970Z,0
2017-08-10T03:15:07.448Z,0
2017-08-10T03:16:08.523Z,0
2017-08-10T03:17:08.245Z,0
2017-08-10T03:18:08.593Z,0
2017-08-10T03:19:08.315Z,0
2017-08-10T03:20:09.078Z,0
2017-08-10T03:21:08.763Z,0
2017-08-10T03:22:09.160Z,0
2017-08-10T03:23:08.837Z,0
2017-08-10T03:24:08.594Z,0
2017-08-10T03:25:09.774Z,0
2017-08-10T03:26:09.110Z,0
2017-08-10T03:27:09.546Z,0
2017-08-10T03:28:10.620Z,0
2017-08-10T03:29:10.657Z,0
2017-08-10T03:30:10.373Z,0
2017-08-10T03:31:10.723Z,0
2017-08-10T03:32:10.766Z,0
2017-08-10T03:33:10.466Z,0
2017-08-10T03:34:11.213Z,0
2017-08-10T03:35:10.931Z,0
2017-08-10T03:36:11.736Z,0
2017-08-10T03:37:11.811Z,0
2017-08-10T03:38:11.764Z,0
2017-08-10T03:39:11.161Z,0
2017-08-10T03:40:11.916Z,0
2017-08-10T03:41:12.267Z,0
2017-08-10T03:42:11.975Z,0
2017-08-10T03:43:12.349Z,0
2017-08-10T03:44:12.048Z,0
2017-08-10T03:45:12.163Z,5
2017-08-10T03:46:12.607Z,5
2017-08-10T03:47:12.620Z,5
2017-08-10T03:48:12.635Z,5
2017-08-10T03:49:13.011Z,5
2017-08-10T03:50:12.767Z,5
2017-08-10T03:51:12.895Z,5
2017-08-10T03:52:12.947Z,5
2017-08-10T03:53:12.966Z,5
2017-08-10T03:54:13.493Z,10
2017-08-10T03:55:13.217Z,10
2017-08-10T03:56:13.787Z,10
2017-08-10T03:57:13.502Z,10
2017-08-10T03:58:13.550Z,10
2017-08-10T03:59:13.898Z,10
2017-08-10T04:00:20.201Z,10
2017-08-10T04:01:13.947Z,10
2017-08-10T04:02:14.045Z,10
2017-08-10T04:03:13.949Z,10
2017-08-10T04:04:13.987Z,15
2017-08-10T04:05:13.846Z,15
2017-08-10T04:06:13.746Z,15
2017-08-10T04:07:14.076Z,20
2017-08-10T04:08:13.536Z,20
2017-08-10T04:09:14.146Z,20
2017-08-10T04:10:14.280Z,20
2017-08-10T04:11:13.903Z,20
2017-08-10T04:12:14.275Z,20
2017-08-10T04:13:14.015Z,15
2017-08-10T04:14:14.042Z,15
2017-08-10T04:15:14.128Z,15
2017-08-10T04:16:14.392Z,15
2017-08-10T04:17:14.422Z,15
2017-08-10T04:18:14.163Z,15
2017-08-10T04:19:13.581Z,15
2017-08-10T04:20:14.034Z,15
2017-08-10T04:21:14.708Z,15
2017-08-10T04:22:15.050Z,20
2017-08-10T04:23:15.117Z,20
2017-08-10T04:24:14.817Z,25
2017-08-10T04:25:15.188Z,25
2017-08-10T04:26:15.514Z,30
2017-08-10T04:27:15.573Z,30
2017-08-10T04:28:15.274Z,30
2017-08-10T04:29:15.017Z,35
2017-08-10T04:30:16.215Z,35
2017-08-10T04:31:16.027Z,35
2017-08-10T04:32:16.086Z,40
2017-08-10T04:33:15.791Z,40
2017-08-10T04:34:15.863Z,35
2017-08-10T04:35:16.446Z,35
2017-08-10T04:36:16.205Z,35
2017-08-10T04:37:16.240Z,35
2017-08-10T04:38:15.943Z,35
2017-08-10T04:39:16.052Z,30
2017-08-10T04:40:16.114Z,30
2017-08-10T04:41:17.081Z,25
2017-08-10T04:42:16.803Z,25
2017-08-10T04:43:16.831Z,30
2017-08-10T04:44:17.211Z,30
2017-08-10T04:45:17.223Z,35
2017-08-10T04:46:17.239Z,40
2017-08-10T04:47:17.006Z,40
2017-08-10T04:48:17.028Z,50
2017-08-10T04:49:17.349Z,50
2017-08-10T04:50:17.084Z,55
2017-08-10T04:51:17.417Z,60
2017-08-10T04:52:17.508Z,60
2017-08-10T04:53:17.516Z,60
2017-08-10T04:54:17.547Z,65
2017-08-10T04:55:17.583Z,70
2017-08-10T04:56:17.608Z,70
2017-08-10T04:57:17.640Z,70
2017-08-10T04:58:17.375Z,75
2017-08-10T04:59:17.117Z,75
2017-08-10T05:00:17.781Z,75
2017-08-10T05:01:18.190Z,75
2017-08-10T05:02:18.251Z,75
2017-08-10T05:03:17.602Z,70
2017-08-10T05:04:17.946Z,65
2017-08-10T05:05:18.305Z,60
2017-08-10T05:06:18.988Z,55
2017-08-10T05:07:19.363Z,55
2017-08-10T05:08:19.035Z,50
2017-08-10T05:09:19.084Z,45
2017-08-10T05:10:19.448Z,45
2017-08-10T05:11:19.142Z,45
2017-08-10T05:12:18.543Z,50
2017-08-10T05:13:19.252Z,50
2017-08-10T05:14:18.673Z,55
2017-08-10T05:15:19.649Z,55
2017-08-10T05:16:19.670Z,55
2017-08-10T05:17:18.787Z,60
2017-08-10T05:18:19.438Z,60
2017-08-10T05:19:19.191Z,60
2017-08-10T05:20:19.513Z,60
2017-08-10T05:21:19.515Z,65
2017-08-10T05:22:19.581Z,70
2017-08-10T05:23:19.907Z,65
2017-08-10T05:24:19.649Z,65
2017-08-10T05:25:19.699Z,65
2017-08-10T05:26:20.049Z,65
2017-08-10T05:27:20.090Z,65
2017-08-10T05:28:20.706Z,65
2017-08-10T05:29:19.556Z,65
2017-08-10T05:30:20.243Z,70
2017-08-10T05:31:20.540Z,70
2017-08-10T05:32:20.314Z,70
2017-08-10T05:33:20.571Z,70
2017-08-10T05:34:20.329Z,70
2017-08-10T05:35:20.378Z,75
2017-08-10T05:36:20.435Z,75
2017-08-10T05:37:21.082Z,75
2017-08-10T05:38:20.467Z,70
2017-08-10T05:39:21.152Z,70
2017-08-10T05:40:20.868Z,65
2017-08-10T05:41:20.874Z,65
2017-08-10T05:42:21.528Z,60
2017-08-10T05:43:21.236Z,55
2017-08-10T05:44:21.628Z,55
2017-08-10T05:45:21.646Z,55
2017-08-10T05:46:21.381Z,60
2017-08-10T05:47:22.024Z,60
2017-08-10T05:48:21.401Z,65
2017-08-10T05:49:22.081Z,70
2017-08-10T05:50:21.498Z,75
2017-08-10T05:51:22.479Z,80
2017-08-10T05:52:22.291Z,85
2017-08-10T05:53:22.545Z,85
2017-08-10T05:54:21.978Z,85
2017-08-10T05:55:22.643Z,90
2017-08-10T05:56:22.720Z,95
2017-08-10T05:57:23.016Z,95
2017-08-10T05:58:22.753Z,95
2017-08-10T05:59:23.078Z,95
2017-08-10T06:00:22.490Z,95
2017-08-10T06:01:22.839Z,90
2017-08-10T06:02:22.876Z,90
2017-08-10T06:03:23.225Z,90
2017-08-10T06:04:22.916Z,85
2017-08-10T06:05:22.957Z,90
2017-08-10T06:06:23.093Z,85
2017-08-10T06:07:22.724Z,80
2017-08-10T06:08:23.082Z,85
2017-08-10T06:09:23.745Z,85
2017-08-10T06:10:23.462Z,95
2017-08-10T06:11:24.105Z,100
2017-08-10T06:12:24.168Z,110
2017-08-10T06:13:23.881Z,120
2017-08-10T06:14:24.221Z,130
2017-08-10T06:15:24.220Z,145
2017-08-10T06:16:24.327Z,170
2017-08-10T06:17:24.638Z,195
2017-08-10T06:18:24.693Z,215
2017-08-10T06:19:24.699Z,215
2017-08-10T06:20:24.425Z,205
2017-08-10T06:21:24.126Z,195
2017-08-10T06:22:24.788Z,200
2017-08-10T06:23:24.549Z,205
2017-08-10T06:24:25.512Z,220
2017-08-10T06:25:24.604Z,230
2017-08-10T06:26:25.310Z,235
2017-08-10T06:27:25.046Z,225
2017-08-10T06:28:26.301Z,210
2017-08-10T06:29:25.736Z,195
2017-08-10T06:30:26.104Z,185
2017-08-10T06:31:26.119Z,175
2017-08-10T06:32:25.526Z,170
2017-08-10T06:33:26.220Z,170
2017-08-10T06:34:25.960Z,170
2017-08-10T06:35:26.954Z,165
2017-08-10T06:36:26.656Z,165
2017-08-10T06:37:26.367Z,170
2017-08-10T06:38:26.421Z,170
2017-08-10T06:39:26.801Z,185
2017-08-10T06:40:27.437Z,190
2017-08-10T06:41:27.800Z,195
2017-08-10T06:42:27.524Z,195
2017-08-10T06:43:27.875Z,190
2017-08-10T06:44:27.612Z,190
2017-08-10T06:45:27.316Z,190
2017-08-10T06:46:28.302Z,185
2017-08-10T06:47:27.999Z,180
2017-08-10T06:48:28.064Z,180
2017-08-10T06:49:28.412Z,180
2017-08-10T06:50:28.448Z,185
2017-08-10T06:51:28.476Z,190
2017-08-10T06:52:27.903Z,190
2017-08-10T06:53:28.549Z,195
2017-08-10T06:54:27.633Z,195
2017-08-10T06:55:27.989Z,190
2017-08-10T06:56:28.647Z,190
2017-08-10T06:57:28.664Z,190
2017-08-10T06:58:29.027Z,190
2017-08-10T06:59:28.415Z,205
2017-08-10T07:00:29.412Z,220
2017-08-10T07:01:29.120Z,230
2017-08-10T07:02:29.148Z,235
2017-08-10T07:03:29.520Z,230
2017-08-10T07:04:29.530Z,230
2017-08-10T07:05:29.253Z,225
2017-08-10T07:06:29.579Z,225
2017-08-10T07:07:29.372Z,225
2017-08-10T07:08:29.378Z,235
2017-08-10T07:09:29.095Z,240
2017-08-10T07:10:29.769Z,240
2017-08-10T07:11:29.806Z,235
2017-08-10T07:12:29.580Z,230
2017-08-10T07:13:29.530Z,230
2017-08-10T07:14:29.914Z,235
2017-08-10T07:15:29.990Z,235
2017-08-10T07:16:29.657Z,225
2017-08-10T07:17:30.289Z,215
2017-08-10T07:18:30.347Z,215
2017-08-10T07:19:30.050Z,215
2017-08-10T07:20:30.410Z,215
2017-08-10T07:21:30.427Z,220
2017-08-10T07:22:29.857Z,225
2017-08-10T07:23:30.834Z,230
2017-08-10T07:24:30.558Z,235
2017-08-10T07:25:30.251Z,235
2017-08-10T07:26:30.909Z,230
2017-08-10T07:27:31.322Z,225
2017-08-10T07:28:31.651Z,220
2017-08-10T07:29:31.301Z,220
2017-08-10T07:30:31.646Z,220
2017-08-10T07:31:31.694Z,220
2017-08-10T07:32:31.463Z,225
2017-08-10T07:33:32.413Z,235
2017-08-10T07:34:32.584Z,245
2017-08-10T07:35:32.188Z,260
2017-08-10T07:36:31.913Z,285
2017-08-10T07:37:32.926Z,325
2017-08-10T07:38:32.676Z,360
2017-08-10T07:39:32.654Z,385
2017-08-10T07:40:33.019Z,445
2017-08-10T07:41:33.019Z,535
2017-08-10T07:42:32.137Z,595
2017-08-10T07:43:33.111Z,635
2017-08-10T07:44:33.170Z,650
2017-08-10T07:45:32.886Z,635
2017-08-10T07:46:32.949Z,605
2017-08-10T07:47:33.284Z,590
2017-08-10T07:48:33.288Z,570
2017-08-10T07:49:33.038Z,550
2017-08-10T07:50:33.075Z,505
2017-08-10T07:51:33.395Z,440
2017-08-10T07:52:33.147Z,400
2017-08-10T07:53:33.786Z,400
2017-08-10T07:54:33.225Z,400
2017-08-10T07:55:33.581Z,400
2017-08-10T07:56:33.652Z,400
2017-08-10T07:57:33.672Z,400
2017-08-10T07:58:34.081Z,405
2017-08-10T07:59:33.225Z,425
2017-08-10T08:00:34.192Z,440
2017-08-10T08:01:33.944Z,460
2017-08-10T08:02:33.675Z,490
2017-08-10T08:03:34.629Z,535
2017-08-10T08:04:34.685Z,550
2017-08-10T08:05:34.719Z,560
2017-08-10T08:06:34.765Z,615
2017-08-10T08:07:34.489Z,630
2017-08-10T08:08:34.853Z,620
2017-08-10T08:09:34.558Z,660
2017-08-10T08:10:34.899Z,660
2017-08-10T08:11:34.641Z,595
2017-08-10T08:12:34.656Z,545
2017-08-10T08:13:35.098Z,505
2017-08-10T08:14:34.455Z,460
2017-08-10T08:15:35.421Z,425
2017-08-10T08:16:35.457Z,410
2017-08-10T08:17:35.226Z,390
2017-08-10T08:18:35.542Z,390
2017-08-10T08:19:35.604Z,395
2017-08-10T08:20:35.377Z,415
2017-08-10T08:21:35.321Z,435
2017-08-10T08:22:35.389Z,455
2017-08-10T08:23:35.754Z,465
2017-08-10T08:24:35.764Z,450
2017-08-10T08:25:35.517Z,435
2017-08-10T08:26:36.155Z,415
2017-08-10T08:27:35.974Z,405
2017-08-10T08:28:35.922Z,390
2017-08-10T08:29:35.992Z,370
2017-08-10T08:30:35.724Z,365
2017-08-10T08:31:35.747Z,360
2017-08-10T08:32:35.759Z,365
2017-08-10T08:33:35.845Z,365
2017-08-10T08:34:35.590Z,370
2017-08-10T08:35:35.971Z,375
2017-08-10T08:36:36.361Z,385
2017-08-10T08:37:37.038Z,400
2017-08-10T08:38:37.099Z,420
2017-08-10T08:39:37.499Z,435
2017-08-10T08:40:37.921Z,445
2017-08-10T08:41:37.163Z,445
2017-08-10T08:42:37.522Z,440
2017-08-10T08:43:38.939Z,430
2017-08-10T08:44:38.620Z,425
2017-08-10T08:45:38.624Z,415
2017-08-10T08:46:37.687Z,395
2017-08-10T08:47:38.396Z,385
2017-08-10T08:48:38.765Z,375
2017-08-10T08:49:38.791Z,355
2017-08-10T08:50:38.487Z,355
2017-08-10T08:51:38.575Z,365
2017-08-10T08:52:38.929Z,385
2017-08-10T08:53:38.874Z,400
2017-08-10T08:54:38.652Z,410
2017-08-10T08:55:38.934Z,405
2017-08-10T08:56:39.067Z,400
2017-08-10T08:57:39.117Z,405
2017-08-10T08:58:38.839Z,405
2017-08-10T08:59:39.170Z,420
2017-08-10T09:00:39.205Z,440
2017-08-10T09:01:39.011Z,450
2017-08-10T09:02:39.271Z,440
2017-08-10T09:03:39.346Z,420
2017-08-10T09:04:39.056Z,400
2017-08-10T09:05:39.419Z,380
2017-08-10T09:06:39.478Z,365
2017-08-10T09:07:39.154Z,365
2017-08-10T09:08:39.206Z,380
2017-08-10T09:09:39.535Z,395
2017-08-10T09:10:39.272Z,405
2017-08-10T09:11:39.644Z,400
2017-08-10T09:12:39.341Z,390
2017-08-10T09:13:39.366Z,370
2017-08-10T09:14:40.041Z,360
2017-08-10T09:15:39.461Z,335
2017-08-10T09:16:40.438Z,320
2017-08-10T09:17:40.481Z,315
2017-08-10T09:18:40.262Z,310
2017-08-10T09:19:40.230Z,305
2017-08-10T09:20:40.601Z,305
2017-08-10T09:21:40.598Z,310
2017-08-10T09:22:40.678Z,310
2017-08-10T09:23:40.418Z,315
2017-08-10T09:24:39.869Z,320
2017-08-10T09:25:40.762Z,320
2017-08-10T09:26:40.796Z,320
2017-08-10T09:27:40.530Z,320
2017-08-10T09:28:40.880Z,330
2017-08-10T09:29:40.916Z,335
2017-08-10T09:30:40.941Z,345
2017-08-10T09:31:41.027Z,360
2017-08-10T09:32:40.723Z,385
2017-08-10T09:33:40.489Z,405
2017-08-10T09:34:41.459Z,430
2017-08-10T09:35:41.467Z,440
2017-08-10T09:36:41.270Z,450
2017-08-10T09:37:41.594Z,440
2017-08-10T09:38:41.636Z,410
2017-08-10T09:39:40.989Z,370
2017-08-10T09:40:41.670Z,330
2017-08-10T09:41:42.011Z,310
2017-08-10T09:42:41.760Z,305
2017-08-10T09:43:41.773Z,310
2017-08-10T09:44:42.150Z,335
2017-08-10T09:45:41.863Z,360
2017-08-10T09:46:41.896Z,395
2017-08-10T09:47:42.258Z,435
2017-08-10T09:48:41.656Z,465
2017-08-10T09:49:42.317Z,475
2017-08-10T09:50:42.372Z,475
2017-08-10T09:51:42.089Z,470
2017-08-10T09:52:42.127Z,465
2017-08-10T09:53:41.852Z,460
2017-08-10T09:54:42.842Z,465
2017-08-10T09:55:42.575Z,475
2017-08-10T09:56:42.263Z,490
2017-08-10T09:57:43.238Z,505
2017-08-10T09:58:43.277Z,525
2017-08-10T09:59:43.016Z,560
2017-08-10T10:00:43.036Z,610
2017-08-10T10:01:43.098Z,680
2017-08-10T10:02:43.439Z,785
2017-08-10T10:03:43.468Z,825
2017-08-10T10:04:43.815Z,835
2017-08-10T10:05:42.937Z,840
2017-08-10T10:06:43.281Z,985
2017-08-10T10:07:43.339Z,825
2017-08-10T10:08:43.705Z,825
2017-08-10T10:09:44.042Z,900
2017-08-10T10:10:44.376Z,930
2017-08-10T10:11:44.414Z,945
2017-08-10T10:12:43.836Z,985
2017-08-10T10:13:44.779Z,1005
2017-08-10T10:14:44.526Z,1650
2017-08-10T10:15:45.188Z,1295
2017-08-10T10:16:44.918Z,930
2017-08-10T10:17:45.241Z,935
2017-08-10T10:18:45.300Z,970
2017-08-10T10:19:45.615Z,1055
2017-08-10T10:20:45.674Z,1075
2017-08-10T10:21:45.750Z,1350
2017-08-10T10:22:45.817Z,1105
2017-08-10T10:23:46.795Z,1160
2017-08-10T10:24:46.539Z,1285
2017-08-10T10:25:46.857Z,1270
2017-08-10T10:26:46.927Z,1215
2017-08-10T10:27:46.949Z,1125
2017-08-10T10:28:46.726Z,1120
2017-08-10T10:29:47.020Z,1105
2017-08-10T10:30:46.792Z,1075
2017-08-10T10:31:47.084Z,1065
2017-08-10T10:32:46.849Z,1070
2017-08-10T10:33:46.879Z,1005
2017-08-10T10:34:47.214Z,1000
2017-08-10T10:35:46.961Z,1030
2017-08-10T10:36:46.986Z,970
2017-08-10T10:37:47.079Z,990
2017-08-10T10:38:47.143Z,995
2017-08-10T10:39:48.122Z,995
2017-08-10T10:40:47.867Z,1030
2017-08-10T10:41:47.579Z,1050
2017-08-10T10:42:47.954Z,1090
2017-08-10T10:43:48.909Z,1125
2017-08-10T10:44:48.655Z,1110
2017-08-10T10:45:48.666Z,1105
2017-08-10T10:46:49.097Z,1080
2017-08-10T10:47:48.792Z,1100
2017-08-10T10:48:49.148Z,1040
2017-08-10T10:49:48.917Z,1015
2017-08-10T10:50:49.220Z,1065
2017-08-10T10:51:49.278Z,1130
2017-08-10T10:52:49.315Z,1150
2017-08-10T10:53:49.345Z,1135
2017-08-10T10:54:49.402Z,1220
2017-08-10T10:55:49.451Z,1180
2017-08-10T10:56:49.180Z,1165
2017-08-10T10:57:48.911Z,1235
2017-08-10T10:58:49.556Z,1340
2017-08-10T10:59:49.282Z,1370
2017-08-10T11:00:49.689Z,1120
2017-08-10T11:01:49.848Z,945
2017-08-10T11:02:50.301Z,900
2017-08-10T11:03:50.638Z,895
2017-08-10T11:04:50.503Z,885
2017-08-10T11:05:49.950Z,915
2017-08-10T11:06:49.993Z,885
2017-08-10T11:07:49.632Z,855
2017-08-10T11:08:50.257Z,845
2017-08-10T11:09:49.998Z,830
2017-08-10T11:10:50.028Z,845
2017-08-10T11:11:50.421Z,850
2017-08-10T11:12:50.107Z,895
2017-08-10T11:13:51.103Z,890
2017-08-10T11:14:51.153Z,875
2017-08-10T11:15:51.175Z,865
2017-08-10T11:16:50.905Z,830
2017-08-10T11:17:51.219Z,775
2017-08-10T11:18:51.599Z,785
2017-08-10T11:19:51.366Z,785
2017-08-10T11:20:51.382Z,785
2017-08-10T11:21:51.719Z,765
2017-08-10T11:22:51.460Z,750
2017-08-10T11:23:51.467Z,725
2017-08-10T11:24:50.919Z,745
2017-08-10T11:25:51.924Z,755
2017-08-10T11:26:51.956Z,775
2017-08-10T11:27:51.388Z,755
2017-08-10T11:28:52.349Z,735
2017-08-10T11:29:51.462Z,675
2017-08-10T11:30:52.448Z,665
2017-08-10T11:31:52.495Z,620
2017-08-10T11:32:52.523Z,635
2017-08-10T11:33:52.286Z,645
2017-08-10T11:34:52.613Z,645
2017-08-10T11:35:52.323Z,630
2017-08-10T11:36:52.392Z,625
2017-08-10T11:37:52.719Z,605
2017-08-10T11:38:52.472Z,620
2017-08-10T11:39:53.459Z,620
2017-08-10T11:40:53.157Z,620
2017-08-10T11:41:53.556Z,625
2017-08-10T11:42:53.224Z,630
2017-08-10T11:43:53.617Z,620
2017-08-10T11:44:53.691Z,590
2017-08-10T11:45:53.370Z,530
2017-08-10T11:46:53.357Z,470
2017-08-10T11:47:54.039Z,415
2017-08-10T11:48:54.063Z,380
2017-08-10T11:49:53.821Z,335
2017-08-10T11:50:53.552Z,345
2017-08-10T11:51:53.925Z,340
2017-08-10T11:52:54.257Z,335
2017-08-10T11:53:54.015Z,335
2017-08-10T11:54:54.697Z,325
2017-08-10T11:55:55.042Z,315
2017-08-10T11:56:55.074Z,315
2017-08-10T11:57:54.781Z,300
2017-08-10T11:58:54.844Z,300
2017-08-10T11:59:54.247Z,320
2017-08-10T12:00:55.228Z,340
2017-08-10T12:01:55.583Z,350
2017-08-10T12:02:54.704Z,335
2017-08-10T12:03:55.075Z,355
2017-08-10T12:04:55.082Z,360
2017-08-10T12:05:55.139Z,375
2017-08-10T12:06:55.180Z,390
2017-08-10T12:07:55.846Z,375
2017-08-10T12:08:56.204Z,350
2017-08-10T12:09:55.946Z,370
2017-08-10T12:10:55.954Z,375
2017-08-10T12:11:56.024Z,345
2017-08-10T12:12:56.455Z,335
2017-08-10T12:13:56.721Z,315
2017-08-10T12:14:56.775Z,330
2017-08-10T12:15:56.813Z,345
2017-08-10T12:16:56.259Z,360
2017-08-10T12:17:56.638Z,345
2017-08-10T12:18:56.968Z,360
2017-08-10T12:19:56.706Z,365
2017-08-10T12:20:56.737Z,385
2017-08-10T12:21:57.353Z,370
2017-08-10T12:22:57.113Z,370
2017-08-10T12:23:57.459Z,365
2017-08-10T12:24:57.511Z,380
2017-08-10T12:25:57.509Z,370
2017-08-10T12:26:57.234Z,345
2017-08-10T12:27:57.557Z,335
2017-08-10T12:28:57.626Z,315
2017-08-10T12:29:57.951Z,335
2017-08-10T12:30:58.018Z,365
2017-08-10T12:31:58.045Z,370
2017-08-10T12:32:58.093Z,375
2017-08-10T12:33:58.152Z,360
2017-08-10T12:34:58.149Z,385
2017-08-10T12:35:57.885Z,395
2017-08-10T12:36:58.456Z,380
2017-08-10T12:37:58.262Z,370
2017-08-10T12:38:58.338Z,400
2017-08-10T12:39:58.381Z,415
2017-08-10T12:40:58.082Z,425
2017-08-10T12:41:58.123Z,430
2017-08-10T12:42:58.183Z,420
2017-08-10T12:43:57.885Z,410
2017-08-10T12:44:58.272Z,400
2017-08-10T12:45:58.286Z,395
2017-08-10T12:46:58.995Z,400
2017-08-10T12:47:59.015Z,405
2017-08-10T12:48:59.361Z,420
2017-08-10T12:49:58.811Z,415
2017-08-10T12:50:59.821Z,400
2017-08-10T12:51:59.527Z,395
2017-08-10T12:52:59.847Z,405
2017-08-10T12:53:59.598Z,410
2017-08-10T12:54:59.627Z,415
2017-08-10T12:55:59.968Z,425
2017-08-10T12:56:59.715Z,430
2017-08-10T12:58:00.080Z,435
2017-08-10T12:58:59.804Z,430
2017-08-10T12:59:59.828Z,410
2017-08-10T13:01:00.160Z,385
2017-08-10T13:02:00.417Z,380
2017-08-10T13:02:59.914Z,375
2017-08-10T13:04:00.010Z,370
2017-08-10T13:05:00.021Z,365
2017-08-10T13:06:00.402Z,355
2017-08-10T13:06:59.823Z,340
2017-08-10T13:08:00.791Z,345
2017-08-10T13:09:00.554Z,355
2017-08-10T13:10:00.880Z,365
2017-08-10T13:11:00.609Z,380
2017-08-10T13:12:00.935Z,395
2017-08-10T13:13:01.017Z,405
2017-08-10T13:14:01.323Z,395
2017-08-10T13:15:00.726Z,385
2017-08-10T13:16:00.779Z,380
2017-08-10T13:17:01.728Z,370
2017-08-10T13:18:01.483Z,365
2017-08-10T13:19:01.816Z,345
2017-08-10T13:20:01.857Z,350
2017-08-10T13:21:01.588Z,340
2017-08-10T13:22:01.956Z,325
2017-08-10T13:23:01.695Z,310
2017-08-10T13:24:02.027Z,300
2017-08-10T13:25:02.111Z,305
2017-08-10T13:26:01.489Z,295
2017-08-10T13:27:01.861Z,295
2017-08-10T13:28:02.173Z,275
2017-08-10T13:29:01.912Z,275
2017-08-10T13:30:01.988Z,275
2017-08-10T13:31:02.341Z,275
2017-08-10T13:32:01.760Z,280
2017-08-10T13:33:02.724Z,280
2017-08-10T13:34:02.786Z,285
2017-08-10T13:35:02.211Z,285
2017-08-10T13:36:03.219Z,290
2017-08-10T13:37:02.674Z,295
2017-08-10T13:38:03.349Z,285
2017-08-10T13:39:03.135Z,280
2017-08-10T13:40:04.247Z,270
2017-08-10T13:41:03.556Z,270
2017-08-10T13:42:04.226Z,270
2017-08-10T13:43:03.965Z,270
2017-08-10T13:44:04.957Z,270
2017-08-10T13:45:04.735Z,275
2017-08-10T13:46:05.022Z,270
2017-08-10T13:47:05.065Z,280
2017-08-10T13:48:04.516Z,295
2017-08-10T13:49:05.527Z,290
2017-08-10T13:50:05.612Z,295
2017-08-10T13:51:05.605Z,305
2017-08-10T13:52:05.323Z,295
2017-08-10T13:53:05.380Z,295
2017-08-10T13:54:05.727Z,285
2017-08-10T13:55:05.786Z,290
2017-08-10T13:56:06.181Z,290
2017-08-10T13:57:05.538Z,290
2017-08-10T13:58:05.955Z,290
2017-08-10T13:59:06.910Z,290
2017-08-10T14:00:06.894Z,285
2017-08-10T14:01:07.003Z,275
2017-08-10T14:02:07.181Z,265
2017-08-10T14:03:07.082Z,260
2017-08-10T14:04:07.159Z,260
2017-08-10T14:05:07.437Z,260
2017-08-10T14:06:07.187Z,265
2017-08-10T14:07:07.279Z,260